Time;durP1;ratioP1;P1;durP2;ratioP2;P2;SDS_P1;SDS_P2;PMS_P1;PMS_P2;Temp;Humidity;BMP_temperature;BMP_pressure;BME280_temperature;BME280_humidity;BME280_pressure;Samples;Min_cycle;Max_cycle;Signal;HPM_P1;HPM_P2
2021/05/07 00:01:28;;;;;;;2.77;1.90;;;8.20;99.90;;;;;;4416185;28;653514;-68
2021/05/07 00:04:15;;;;;;;7.57;3.10;;;8.20;99.90;;;;;;4434213;28;654844;-68
2021/05/07 00:07:03;;;;;;;9.73;3.65;;;8.10;99.90;;;;;;4418461;28;653127;-70
2021/05/07 00:09:50;;;;;;;6.07;2.97;;;8.10;99.90;;;;;;4406871;28;653928;-68
2021/05/07 00:12:37;;;;;;;6.10;2.73;;;8.10;99.90;;;;;;4415616;28;654126;-70
2021/05/07 00:15:24;;;;;;;4.90;2.43;;;7.90;99.90;;;;;;4426869;28;653803;-68
2021/05/07 00:18:11;;;;;;;4.97;2.30;;;7.90;99.90;;;;;;4428710;28;654137;-70
2021/05/07 00:20:58;;;;;;;6.07;2.50;;;7.80;99.90;;;;;;4406009;28;653127;-68
2021/05/07 00:23:46;;;;;;;7.60;3.00;;;7.80;99.90;;;;;;4423293;28;654470;-68
2021/05/07 00:26:33;;;;;;;7.67;3.47;;;7.80;99.90;;;;;;4414894;28;654180;-69
2021/05/07 00:29:20;;;;;;;5.83;3.07;;;7.70;99.90;;;;;;4437201;28;654975;-68
2021/05/07 00:32:07;;;;;;;6.83;3.10;;;7.70;99.90;;;;;;4413739;28;653764;-69
2021/05/07 00:34:54;;;;;;;6.70;3.10;;;7.60;99.90;;;;;;4427319;28;654223;-68
2021/05/07 00:37:41;;;;;;;4.53;2.97;;;7.60;99.90;;;;;;4430189;28;654129;-68
2021/05/07 00:40:29;;;;;;;4.70;2.73;;;7.60;99.90;;;;;;4409421;28;653653;-68
2021/05/07 00:43:16;;;;;;;4.03;2.43;;;7.60;99.90;;;;;;4427094;28;653427;-68
2021/05/07 00:46:03;;;;;;;5.30;2.13;;;7.50;99.90;;;;;;4411582;28;653347;-68
2021/05/07 00:48:50;;;;;;;4.53;2.45;;;7.50;99.90;;;;;;4435434;28;654241;-68
2021/05/07 00:51:37;;;;;;;6.03;2.78;;;7.50;99.90;;;;;;4406912;28;653273;-69
2021/05/07 00:54:24;;;;;;;4.93;2.50;;;7.40;99.90;;;;;;4438454;28;653711;-68
2021/05/07 00:57:12;;;;;;;6.47;2.60;;;7.40;99.90;;;;;;4421717;28;653692;-68
2021/05/07 00:59:59;;;;;;;9.07;3.35;;;7.30;99.90;;;;;;4413580;28;654223;-68
2021/05/07 01:02:46;;;;;;;9.57;4.07;;;7.40;99.90;;;;;;4432991;28;653840;-69
2021/05/07 01:05:33;;;;;;;6.43;3.53;;;7.40;99.90;;;;;;4410433;28;653652;-68
2021/05/07 01:08:21;;;;;;;5.80;3.60;;;7.40;99.90;;;;;;4427983;28;653805;-68
2021/05/07 01:11:09;;;;;;;6.83;3.67;;;7.40;99.90;;;;;;4407801;28;654181;-68
2021/05/07 01:13:56;;;;;;;6.67;3.50;;;7.40;99.90;;;;;;4430036;28;654068;-68
2021/05/07 01:16:44;;;;;;;6.43;3.47;;;7.50;99.90;;;;;;4413326;28;653697;-68
2021/05/07 01:19:30;;;;;;;7.40;3.97;;;7.40;99.90;;;;;;4435492;28;653416;-68
2021/05/07 01:22:19;;;;;;;8.63;4.03;;;7.40;99.90;;;;;;4417725;28;653811;-68
2021/05/07 01:25:07;;;;;;;6.77;3.87;;;7.40;99.90;;;;;;4425991;28;655619;-68
2021/05/07 01:27:57;;;;;;;9.43;4.30;;;7.40;99.90;;;;;;4413846;28;653943;-68
2021/05/07 01:30:44;;;;;;;9.97;4.63;;;7.40;99.90;;;;;;4411953;28;654130;-68
2021/05/07 01:33:31;;;;;;;8.87;4.27;;;7.40;99.90;;;;;;4436564;28;653861;-69
2021/05/07 01:36:18;;;;;;;6.50;3.88;;;7.40;99.90;;;;;;4413256;28;653696;-69
2021/05/07 01:39:06;;;;;;;8.02;3.80;;;7.40;99.90;;;;;;4433778;28;654138;-68
2021/05/07 01:41:53;;;;;;;12.30;5.13;;;7.40;99.90;;;;;;4407384;28;653506;-68
2021/05/07 01:44:40;;;;;;;9.17;5.47;;;7.40;99.90;;;;;;4435977;28;655653;-68
2021/05/07 01:47:27;;;;;;;11.10;4.87;;;7.40;99.90;;;;;;4410522;28;653909;-69
2021/05/07 01:50:15;;;;;;;7.75;4.70;;;7.40;99.90;;;;;;4439214;28;654416;-68
2021/05/07 01:53:03;;;;;;;5.17;3.07;;;7.40;99.90;;;;;;4413234;28;653653;-70
2021/05/07 01:55:54;;;;;;;3.97;2.30;;;7.40;99.90;;;;;;4439470;28;653228;-68
2021/05/07 01:58:42;;;;;;;3.80;2.10;;;7.30;99.90;;;;;;4413309;28;653549;-69
2021/05/07 02:01:29;;;;;;;7.23;2.20;;;7.30;99.90;;;;;;4417698;28;653724;-68
2021/05/07 02:04:16;;;;;;;3.13;1.98;;;7.30;99.90;;;;;;4436949;28;653634;-69
2021/05/07 02:07:04;;;;;;;4.17;2.50;;;7.40;99.90;;;;;;4415472;28;653521;-69
2021/05/07 02:09:51;;;;;;;4.17;2.10;;;7.30;99.90;;;;;;4433588;28;654877;-68
2021/05/07 02:12:38;;;;;;;7.13;2.20;;;7.30;99.90;;;;;;4410347;28;653231;-70
2021/05/07 02:15:26;;;;;;;3.40;2.30;;;7.40;99.90;;;;;;4435617;28;654538;-68
2021/05/07 02:18:13;;;;;;;5.10;1.90;;;7.40;99.90;;;;;;4416612;28;653359;-68
2021/05/07 02:21:00;;;;;;;4.87;2.00;;;7.40;99.90;;;;;;4433597;28;653595;-68
2021/05/07 02:23:47;;;;;;;3.23;2.30;;;7.40;99.90;;;;;;4427840;28;653365;-71
2021/05/07 02:26:34;;;;;;;5.40;2.17;;;7.50;99.90;;;;;;4438981;28;653275;-68
2021/05/07 02:29:22;;;;;;;5.35;2.10;;;7.50;99.90;;;;;;4430267;28;653356;-69
2021/05/07 02:32:09;;;;;;;6.23;2.07;;;7.50;99.90;;;;;;4416692;28;654289;-68
2021/05/07 02:34:56;;;;;;;5.17;2.23;;;7.50;99.90;;;;;;4435457;28;653999;-69
2021/05/07 02:37:43;;;;;;;4.97;1.87;;;7.50;99.90;;;;;;4409687;28;653436;-69
2021/05/07 02:40:30;;;;;;;4.17;1.90;;;7.50;99.90;;;;;;4435622;28;654456;-69
2021/05/07 02:43:17;;;;;;;4.67;1.97;;;7.50;99.90;;;;;;4410820;28;653513;-70
2021/05/07 02:46:05;;;;;;;3.87;2.03;;;7.50;99.90;;;;;;4439671;28;654467;-68
2021/05/07 02:48:52;;;;;;;3.95;2.50;;;7.50;99.90;;;;;;4415836;28;653506;-70
2021/05/07 02:51:39;;;;;;;6.73;3.03;;;7.50;99.90;;;;;;4439932;28;653231;-69
2021/05/07 02:54:26;;;;;;;7.03;3.80;;;7.50;99.90;;;;;;4434545;28;653308;-69
2021/05/07 02:57:13;;;;;;;9.87;3.53;;;7.50;99.90;;;;;;4416045;28;653997;-69
2021/05/07 03:00:00;;;;;;;6.32;3.00;;;7.50;99.90;;;;;;4421845;28;654880;-69
2021/05/07 03:02:48;;;;;;;4.93;3.05;;;7.50;99.90;;;;;;4417328;28;653281;-70
2021/05/07 03:05:35;;;;;;;7.73;4.03;;;7.60;99.90;;;;;;4430295;28;653382;-68
2021/05/07 03:08:23;;;;;;;7.78;4.10;;;7.50;99.90;;;;;;4415951;28;653999;-70
2021/05/07 03:11:10;;;;;;;5.93;3.27;;;7.50;99.90;;;;;;4431262;28;654600;-68
2021/05/07 03:13:57;;;;;;;9.53;3.33;;;7.50;99.90;;;;;;4419137;28;653370;-71
2021/05/07 03:16:44;;;;;;;5.23;3.17;;;7.50;99.90;;;;;;4432916;28;653422;-69
2021/05/07 03:19:32;;;;;;;4.77;3.07;;;7.50;99.90;;;;;;4428706;28;653390;-69
2021/05/07 03:22:19;;;;;;;5.50;2.83;;;7.60;99.90;;;;;;4410299;28;655209;-69
2021/05/07 03:25:07;;;;;;;6.43;2.83;;;7.50;99.90;;;;;;4426515;28;653608;-68
2021/05/07 03:27:54;;;;;;;5.00;3.07;;;7.50;99.90;;;;;;4412224;28;654291;-69
2021/05/07 03:30:41;;;;;;;6.53;3.00;;;7.50;99.90;;;;;;4439178;28;653144;-68
2021/05/07 03:33:28;;;;;;;5.47;3.03;;;7.50;99.90;;;;;;4414093;28;653669;-69
2021/05/07 03:36:16;;;;;;;6.13;3.13;;;7.50;99.90;;;;;;4432125;28;653841;-69
2021/05/07 03:39:04;;;;;;;6.30;3.33;;;7.50;99.90;;;;;;4412379;28;653405;-69
2021/05/07 03:41:51;;;;;;;5.77;3.10;;;7.50;99.90;;;;;;4428756;28;654430;-69
2021/05/07 03:44:38;;;;;;;4.83;3.27;;;7.50;99.90;;;;;;4407765;28;653074;-69
2021/05/07 03:47:25;;;;;;;6.17;3.30;;;7.50;99.90;;;;;;4438229;28;654179;-68
2021/05/07 03:50:12;;;;;;;9.43;3.23;;;7.50;99.90;;;;;;4418349;28;653610;-70
2021/05/07 03:53:00;;;;;;;4.83;2.90;;;7.50;99.90;;;;;;4435103;28;653156;-70
2021/05/07 03:55:47;;;;;;;6.07;3.03;;;7.50;99.90;;;;;;4406119;28;653797;-70
2021/05/07 03:58:35;;;;;;;7.33;2.97;;;7.50;99.90;;;;;;4426089;28;653557;-68
2021/05/07 04:01:24;;;;;;;6.90;3.00;;;7.50;99.90;;;;;;4415297;28;653315;-70
2021/05/07 04:04:11;;;;;;;6.37;3.23;;;7.50;99.90;;;;;;4435048;28;653539;-68
2021/05/07 04:06:58;;;;;;;6.07;3.27;;;7.50;99.90;;;;;;4406082;28;653381;-69
2021/05/07 04:09:50;;;;;;;4.50;3.27;;;7.50;99.90;;;;;;4433843;28;653784;-68
2021/05/07 04:15:42;;;;;;;4.97;3.13;;;7.60;99.90;;;;;;4388450;28;653340;-70
2021/05/07 04:18:29;;;;;;;7.20;3.23;;;7.60;99.90;;;;;;4437575;28;653616;-69
2021/05/07 04:21:16;;;;;;;6.00;3.50;;;7.60;99.90;;;;;;4433382;28;653360;-68
2021/05/07 04:24:04;;;;;;;6.80;3.60;;;7.60;99.90;;;;;;4407723;28;653502;-69
2021/05/07 04:26:54;;;;;;;6.63;3.37;;;7.60;99.90;;;;;;4437426;28;653897;-68
2021/05/07 04:29:41;;;;;;;7.27;4.07;;;7.60;99.90;;;;;;4405791;28;653397;-69
2021/05/07 04:32:29;;;;;;;6.53;3.80;;;7.70;99.90;;;;;;4412688;28;654097;-68
2021/05/07 04:35:16;;;;;;;7.10;3.60;;;7.70;99.90;;;;;;4433625;28;653674;-69
2021/05/07 04:38:03;;;;;;;8.07;4.00;;;7.70;99.90;;;;;;4413124;28;654439;-70
2021/05/07 04:40:50;;;;;;;7.63;3.70;;;7.70;99.90;;;;;;4432568;28;655269;-69
2021/05/07 04:43:38;;;;;;;10.07;4.57;;;7.70;99.90;;;;;;4430561;28;653702;-70
2021/05/07 04:46:25;;;;;;;8.47;4.03;;;7.70;99.90;;;;;;4428066;28;654562;-69
2021/05/07 04:49:12;;;;;;;9.03;4.40;;;7.80;99.90;;;;;;4414739;28;653658;-70
2021/05/07 04:51:59;;;;;;;10.00;5.17;;;7.80;99.90;;;;;;4430973;28;653209;-68
2021/05/07 04:54:47;;;;;;;8.67;4.80;;;7.90;99.90;;;;;;4429012;28;653866;-69
2021/05/07 04:57:34;;;;;;;7.47;4.23;;;7.90;99.90;;;;;;4406256;28;653476;-70
2021/05/07 05:00:23;;;;;;;10.40;5.50;;;8.00;99.90;;;;;;4423642;28;653277;-69
2021/05/07 05:03:10;;;;;;;9.33;4.37;;;8.10;99.90;;;;;;4413101;28;654787;-69
2021/05/07 05:05:57;;;;;;;15.67;7.90;;;8.20;99.90;;;;;;4437842;28;653833;-69
2021/05/07 05:08:44;;;;;;;12.07;6.77;;;8.30;99.90;;;;;;4413250;28;654634;-69
2021/05/07 05:11:31;;;;;;;19.77;10.40;;;8.40;99.90;;;;;;4431172;28;654522;-69
2021/05/07 05:14:18;;;;;;;21.43;11.10;;;8.50;99.90;;;;;;4412965;28;655701;-70
2021/05/07 05:17:06;;;;;;;17.17;8.13;;;8.60;99.90;;;;;;4424041;28;656646;-69
2021/05/07 05:19:53;;;;;;;18.87;8.50;;;8.60;99.90;;;;;;4406298;28;654271;-70
2021/05/07 05:22:40;;;;;;;18.90;7.80;;;8.80;99.90;;;;;;4436437;28;654579;-69
2021/05/07 05:25:28;;;;;;;23.80;10.30;;;9.00;99.90;;;;;;4413484;28;654667;-70
2021/05/07 05:28:15;;;;;;;26.23;10.37;;;9.20;99.90;;;;;;4430724;28;656091;-68
2021/05/07 05:31:03;;;;;;;20.50;8.50;;;9.20;99.90;;;;;;4408383;28;655761;-71
2021/05/07 05:33:51;;;;;;;17.20;7.10;;;9.30;99.90;;;;;;4433130;28;656037;-69
2021/05/07 05:36:38;;;;;;;13.50;6.57;;;9.30;99.90;;;;;;4405723;28;654772;-69
2021/05/07 05:39:25;;;;;;;12.87;6.17;;;9.50;99.90;;;;;;4431283;28;654625;-69
2021/05/07 05:42:12;;;;;;;13.80;6.25;;;9.60;99.90;;;;;;4406536;28;654979;-71
2021/05/07 05:44:59;;;;;;;13.00;6.43;;;9.80;99.90;;;;;;4436152;28;654923;-69
2021/05/07 05:47:46;;;;;;;10.90;5.50;;;9.90;99.90;;;;;;4423331;28;655376;-69
2021/05/07 05:50:34;;;;;;;13.57;6.57;;;10.10;99.90;;;;;;4405078;28;654787;-69
2021/05/07 05:53:22;;;;;;;18.13;7.27;;;10.20;99.90;;;;;;4429766;28;655335;-69
2021/05/07 05:56:09;;;;;;;10.27;6.73;;;10.20;99.90;;;;;;4411678;28;656354;-68
2021/05/07 05:58:55;;;;;;;13.20;6.90;;;10.30;99.90;;;;;;4434355;28;655999;-69
2021/05/07 06:01:43;;;;;;;14.27;7.63;;;10.40;99.90;;;;;;4401515;28;655857;-71
2021/05/07 06:04:30;;;;;;;14.20;8.23;;;10.40;99.90;;;;;;4433891;28;655644;-69
2021/05/07 06:07:18;;;;;;;13.73;7.67;;;10.40;99.90;;;;;;4409285;28;656152;-70
2021/05/07 06:10:13;;;;;;;13.37;6.67;;;10.40;99.90;;;;;;4430364;28;655622;-69
2021/05/07 06:13:06;;;;;;;13.47;7.30;;;10.40;99.90;;;;;;4402953;28;655985;-69
2021/05/07 06:15:54;;;;;;;14.07;7.60;;;10.50;99.90;;;;;;4375354;28;655541;-68
2021/05/07 06:18:41;;;;;;;13.33;7.60;;;10.50;99.90;;;;;;4428528;28;655262;-68
2021/05/07 06:21:28;;;;;;;15.70;7.10;;;10.40;99.90;;;;;;4410846;28;655880;-69
2021/05/07 06:24:16;;;;;;;13.55;6.85;;;10.40;99.90;;;;;;4434901;28;655541;-69
2021/05/07 06:27:04;;;;;;;15.10;7.33;;;10.20;99.90;;;;;;4413229;28;655442;-68
2021/05/07 06:29:51;;;;;;;15.10;6.60;;;10.20;99.90;;;;;;4437832;28;656956;-68
2021/05/07 06:32:37;;;;;;;13.10;7.00;;;10.10;99.90;;;;;;4414873;28;655487;-69
2021/05/07 06:35:25;;;;;;;12.43;6.70;;;10.00;99.90;;;;;;4423603;28;656462;-68
2021/05/07 06:38:12;;;;;;;10.23;4.70;;;10.00;99.90;;;;;;4423088;28;655518;-69
2021/05/07 06:41:00;;;;;;;5.20;3.33;;;10.10;99.90;;;;;;4430930;28;655523;-68
2021/05/07 06:43:47;;;;;;;5.80;2.80;;;10.00;99.90;;;;;;4414810;28;654567;-69
2021/05/07 06:46:35;;;;;;;6.57;2.50;;;10.10;99.90;;;;;;4428469;28;656202;-68
2021/05/07 06:49:22;;;;;;;6.30;2.97;;;10.10;99.90;;;;;;4409953;28;655026;-70
2021/05/07 06:52:09;;;;;;;7.20;2.53;;;10.20;99.90;;;;;;4430073;28;654203;-69
2021/05/07 06:54:56;;;;;;;4.73;2.70;;;10.20;99.90;;;;;;4429339;28;655226;-68
2021/05/07 06:57:45;;;;;;;3.53;2.00;;;10.20;99.90;;;;;;4415906;28;654919;-68
2021/05/07 07:00:33;;;;;;;5.30;2.00;;;10.30;99.90;;;;;;4411932;28;654303;-69
2021/05/07 07:03:20;;;;;;;4.60;1.90;;;10.30;99.90;;;;;;4428094;28;655235;-68
2021/05/07 07:06:07;;;;;;;6.23;2.13;;;10.30;99.90;;;;;;4415997;28;654622;-70
2021/05/07 07:08:54;;;;;;;3.53;2.10;;;10.40;99.90;;;;;;4434822;28;654566;-68
2021/05/07 07:11:41;;;;;;;4.40;1.80;;;10.40;99.90;;;;;;4434932;28;654709;-68
2021/05/07 07:14:29;;;;;;;4.43;1.80;;;10.50;99.90;;;;;;4416003;28;654459;-69
2021/05/07 07:17:16;;;;;;;4.67;2.07;;;10.60;99.90;;;;;;4427943;28;654836;-68
2021/05/07 07:20:03;;;;;;;4.00;1.97;;;10.70;99.90;;;;;;4415674;28;654661;-70
2021/05/07 07:22:50;;;;;;;3.50;1.60;;;10.80;99.90;;;;;;4434349;28;655785;-77
2021/05/07 07:25:37;;;;;;;3.00;1.67;;;10.80;99.90;;;;;;4416153;28;654537;-73
2021/05/07 07:28:24;;;;;;;4.13;1.80;;;10.80;99.90;;;;;;4423872;28;654277;-67
2021/05/07 07:31:12;;;;;;;3.47;1.83;;;10.80;99.90;;;;;;4434221;28;654084;-69
2021/05/07 07:33:59;;;;;;;3.87;1.43;;;10.80;99.90;;;;;;4405137;28;655045;-72
2021/05/07 07:36:46;;;;;;;2.50;1.67;;;10.80;99.90;;;;;;4435113;28;654565;-73
2021/05/07 07:39:34;;;;;;;3.83;1.47;;;10.80;99.90;;;;;;4415487;28;654452;-72
2021/05/07 07:42:21;;;;;;;3.40;1.93;;;10.80;99.90;;;;;;4426833;28;654342;-72
2021/05/07 07:45:08;;;;;;;3.97;2.20;;;10.70;99.90;;;;;;4415370;28;655055;-74
2021/05/07 07:47:56;;;;;;;3.50;1.90;;;10.70;99.90;;;;;;4431020;28;655310;-73
2021/05/07 07:50:44;;;;;;;6.22;2.03;;;10.70;99.90;;;;;;4408846;28;654893;-73
2021/05/07 07:53:31;;;;;;;4.00;2.20;;;10.70;99.90;;;;;;4434285;28;655630;-73
2021/05/07 07:56:17;;;;;;;5.33;2.37;;;10.90;99.90;;;;;;4415604;28;654586;-70
2021/05/07 07:59:05;;;;;;;3.33;1.87;;;10.80;99.90;;;;;;4428079;28;654733;-70
2021/05/07 08:01:52;;;;;;;7.40;2.63;;;10.90;99.90;;;;;;4434119;28;654876;-70
2021/05/07 08:04:39;;;;;;;4.73;2.10;;;11.00;99.90;;;;;;4415735;28;655040;-71
2021/05/07 08:07:26;;;;;;;4.37;2.33;;;11.10;99.90;;;;;;4433073;28;654670;-71
2021/05/07 08:10:15;;;;;;;7.00;2.90;;;11.20;99.90;;;;;;4414160;28;654309;-70
2021/05/07 08:13:02;;;;;;;7.50;2.47;;;11.40;99.90;;;;;;4427446;28;654571;-70
2021/05/07 08:15:49;;;;;;;5.33;2.30;;;11.40;99.90;;;;;;4434637;28;653928;-71
2021/05/07 08:18:36;;;;;;;5.07;2.70;;;11.50;99.90;;;;;;4432576;28;654443;-73
2021/05/07 08:21:25;;;;;;;4.20;2.50;;;11.50;99.90;;;;;;4414109;28;654744;-74
2021/05/07 08:24:12;;;;;;;4.00;2.40;;;11.50;99.90;;;;;;4426903;28;654076;-71
2021/05/07 08:26:59;;;;;;;7.00;3.17;;;11.60;99.90;;;;;;4434963;28;654596;-74
2021/05/07 08:29:46;;;;;;;7.40;3.27;;;11.60;99.90;;;;;;4433237;28;654669;-74
2021/05/07 08:32:34;;;;;;;6.93;2.30;;;11.70;99.90;;;;;;4414868;28;654852;-74
2021/05/07 08:35:21;;;;;;;5.53;2.43;;;11.80;99.90;;;;;;4433246;28;655082;-73
2021/05/07 08:38:11;;;;;;;5.13;1.90;;;11.70;99.90;;;;;;4404759;28;654888;-72
2021/05/07 08:41:01;;;;;;;2.63;1.67;;;11.60;99.90;;;;;;4403438;28;654624;-73
2021/05/07 08:43:51;;;;;;;3.23;1.60;;;11.60;99.90;;;;;;4407016;28;655173;-73
2021/05/07 08:46:40;;;;;;;2.40;1.47;;;11.50;99.90;;;;;;4413297;28;655715;-69
2021/05/07 08:49:27;;;;;;;4.67;2.10;;;11.40;99.90;;;;;;4425301;28;655811;-68
2021/05/07 08:52:15;;;;;;;4.73;1.40;;;11.50;99.90;;;;;;4428117;28;655944;-68
2021/05/07 08:55:03;;;;;;;2.47;1.10;;;11.60;99.90;;;;;;4404649;28;655444;-71
2021/05/07 08:57:50;;;;;;;4.23;1.40;;;11.70;99.90;;;;;;4431011;28;656435;-73
2021/05/07 09:00:37;;;;;;;2.97;1.30;;;11.80;99.90;;;;;;4407521;28;655380;-70
2021/05/07 09:03:25;;;;;;;3.77;1.47;;;11.80;99.90;;;;;;4435761;28;656297;-70
2021/05/07 09:06:16;;;;;;;3.33;1.80;;;11.80;99.90;;;;;;4430991;28;655536;-69
2021/05/07 09:09:03;;;;;;;3.43;1.70;;;11.80;99.90;;;;;;4384756;28;656386;-69
2021/05/07 09:11:51;;;;;;;4.67;1.90;;;12.00;99.90;;;;;;4433322;28;656399;-69
2021/05/07 09:14:46;;;;;;;3.03;1.87;;;12.40;99.90;;;;;;4402584;28;655750;-70
2021/05/07 09:17:36;;;;;;;2.33;1.40;;;12.60;99.90;;;;;;4385251;28;656128;-69
2021/05/07 09:20:23;;;;;;;3.53;1.90;;;12.60;99.90;;;;;;4410607;28;656416;-69
2021/05/07 09:23:12;;;;;;;4.07;1.90;;;12.80;99.90;;;;;;4423361;28;656920;-69
2021/05/07 09:26:00;;;;;;;3.87;2.20;;;13.10;99.90;;;;;;4411867;28;656915;-69
2021/05/07 09:28:55;;;;;;;3.83;1.60;;;13.40;99.90;;;;;;4423751;28;655683;-69
2021/05/07 09:31:45;;;;;;;3.03;1.60;;;13.40;99.90;;;;;;4386285;28;655623;-69
2021/05/07 09:34:35;;;;;;;1.53;1.23;;;13.20;99.90;;;;;;4426409;28;655714;-71
2021/05/07 09:37:22;;;;;;;4.30;1.50;;;13.20;99.90;;;;;;4418530;28;655502;-69
2021/05/07 09:40:11;;;;;;;2.97;1.30;;;13.60;99.90;;;;;;4439040;28;656367;-69
2021/05/07 09:43:06;;;;;;;3.23;1.43;;;14.30;99.90;;;;;;4414398;28;655581;-74
2021/05/07 09:45:54;;;;;;;6.20;1.60;;;14.50;99.90;;;;;;4415179;28;655854;-70
2021/05/07 09:48:41;;;;;;;2.03;1.30;;;14.40;99.90;;;;;;4435091;28;656221;-68
2021/05/07 09:51:38;;;;;;;1.57;1.27;;;14.00;99.90;;;;;;4411912;28;655499;-69
2021/05/07 09:54:26;;;;;;;4.60;1.33;;;13.50;99.90;;;;;;4411590;28;656433;-74
2021/05/07 09:57:13;;;;;;;6.53;1.63;;;13.20;99.90;;;;;;4408340;28;655713;-72
2021/05/07 10:00:00;;;;;;;3.57;1.50;;;13.10;99.90;;;;;;4434137;28;657419;-73
2021/05/07 10:02:50;;;;;;;3.20;1.27;;;13.10;99.90;;;;;;4415851;28;655431;-71
2021/05/07 10:05:37;;;;;;;3.70;1.60;;;13.00;99.90;;;;;;4430087;28;655348;-71
2021/05/07 10:08:24;;;;;;;2.17;1.40;;;12.90;99.90;;;;;;4430471;28;655337;-74
2021/05/07 10:11:11;;;;;;;4.63;1.70;;;12.50;99.90;;;;;;4433999;28;655526;-73
2021/05/07 10:13:58;;;;;;;2.50;1.70;;;12.40;99.90;;;;;;4409172;28;655598;-74
2021/05/07 10:16:45;;;;;;;5.90;1.60;;;12.20;99.90;;;;;;4433808;28;656247;-73
2021/05/07 10:19:40;;;;;;;3.13;1.63;;;12.60;99.90;;;;;;4415845;28;655633;-72
2021/05/07 10:22:37;;;;;;;4.03;1.73;;;13.00;99.90;;;;;;4392139;28;655564;-71
2021/05/07 10:25:25;;;;;;;7.70;1.90;;;13.20;99.90;;;;;;4388565;28;656553;-73
2021/05/07 10:28:15;;;;;;;2.33;1.73;;;13.70;99.90;;;;;;4418364;28;656023;-71
2021/05/07 10:31:03;;;;;;;3.97;2.10;;;13.90;99.90;;;;;;4408112;28;655921;-70
2021/05/07 10:33:57;;;;;;;6.27;2.10;;;13.50;99.90;;;;;;4429295;28;656385;-72
2021/05/07 10:36:46;;;;;;;6.50;2.17;;;13.10;99.90;;;;;;4381989;28;655701;-74
2021/05/07 10:39:33;;;;;;;4.47;2.23;;;12.70;99.90;;;;;;4414793;28;655450;-73
2021/05/07 10:42:21;;;;;;;3.67;1.87;;;12.20;99.90;;;;;;4437714;28;656185;-73
2021/05/07 10:45:09;;;;;;;4.13;2.07;;;11.80;99.90;;;;;;4409699;28;655860;-74
2021/05/07 10:47:56;;;;;;;4.70;2.13;;;11.50;99.90;;;;;;4433420;28;655193;-73
2021/05/07 10:50:43;;;;;;;3.63;1.87;;;11.30;99.90;;;;;;4413968;28;655574;-73
2021/05/07 10:53:35;;;;;;;4.33;2.00;;;11.00;99.90;;;;;;4436104;28;656570;-72
2021/05/07 10:56:23;;;;;;;7.70;2.20;;;11.10;99.90;;;;;;4386111;28;655304;-71
2021/05/07 10:59:14;;;;;;;5.30;2.07;;;11.50;99.90;;;;;;4426298;28;656026;-73
2021/05/07 11:02:01;;;;;;;3.53;2.23;;;12.00;99.90;;;;;;4386319;28;655575;-73
2021/05/07 11:04:49;;;;;;;4.07;2.00;;;12.20;99.90;;;;;;4380085;28;655771;-73
2021/05/07 11:07:36;;;;;;;3.10;1.80;;;12.70;99.90;;;;;;4414892;28;655817;-72
2021/05/07 11:10:28;;;;;;;2.90;1.60;;;12.80;99.90;;;;;;4396313;28;655855;-72
2021/05/07 11:13:15;;;;;;;5.33;1.80;;;12.90;99.90;;;;;;4386196;28;655807;-72
2021/05/07 11:16:02;;;;;;;3.30;1.70;;;12.90;99.90;;;;;;4400246;28;655675;-72
2021/05/07 11:18:49;;;;;;;2.27;1.60;;;12.60;99.90;;;;;;4419807;28;655319;-73
2021/05/07 11:21:36;;;;;;;4.27;1.60;;;12.30;99.90;;;;;;4419607;28;655756;-73
2021/05/07 11:24:24;;;;;;;4.57;1.90;;;12.30;99.90;;;;;;4396263;28;655586;-74
2021/05/07 11:27:19;;;;;;;1.73;1.43;;;12.10;99.90;;;;;;4415272;28;655771;-73
2021/05/07 11:30:09;;;;;;;2.20;1.70;;;12.10;99.90;;;;;;4392452;28;656110;-73
2021/05/07 11:32:56;;;;;;;2.70;1.53;;;11.90;99.90;;;;;;4392843;28;655617;-73
2021/05/07 11:35:43;;;;;;;2.67;1.67;;;11.90;99.90;;;;;;4396520;28;655579;-73
2021/05/07 11:38:30;;;;;;;3.27;1.33;;;11.80;99.90;;;;;;4414939;28;656014;-74
2021/05/07 11:41:18;;;;;;;2.47;1.60;;;11.80;99.90;;;;;;4395940;28;655565;-71
2021/05/07 11:44:08;;;;;;;1.50;1.27;;;12.20;99.90;;;;;;4408355;28;655668;-74
2021/05/07 11:47:06;;;;;;;1.50;1.00;;;12.20;99.90;;;;;;4384890;28;656009;-74
2021/05/07 11:49:53;;;;;;;2.03;0.80;;;12.90;99.90;;;;;;4373557;28;655711;-72
2021/05/07 11:52:40;;;;;;;1.23;0.70;;;13.30;99.90;;;;;;4418177;28;656376;-72
2021/05/07 11:55:28;;;;;;;1.73;1.00;;;13.40;99.90;;;;;;4389508;28;656517;-73
2021/05/07 11:58:15;;;;;;;3.87;0.93;;;13.00;99.90;;;;;;4411437;28;656324;-73
2021/05/07 12:01:05;;;;;;;2.17;1.37;;;12.70;99.90;;;;;;4412683;28;655673;-70
2021/05/07 12:03:53;;;;;;;2.47;1.30;;;13.10;99.90;;;;;;4430303;28;655486;-70
2021/05/07 12:06:43;;;;;;;2.03;1.27;;;13.70;99.90;;;;;;4427136;28;655707;-70
2021/05/07 12:09:30;;;;;;;7.40;1.40;;;14.40;99.90;;;;;;4409019;28;657446;-71
2021/05/07 12:12:17;;;;;;;1.37;1.20;;;14.50;99.90;;;;;;4430282;28;655364;-69
2021/05/07 12:15:07;;;;;;;4.30;1.17;;;14.60;99.90;;;;;;4436236;28;655810;-74
2021/05/07 12:17:55;;;;;;;2.20;1.20;;;14.90;99.90;;;;;;4412785;28;656218;-70
2021/05/07 12:20:44;;;;;;;3.10;1.10;;;15.30;99.90;;;;;;4390577;28;655474;-70
2021/05/07 12:23:42;;;;;;;3.47;1.40;;;15.80;99.90;;;;;;4431158;28;655458;-72
2021/05/07 12:26:29;;;;;;;3.23;1.50;;;15.60;99.90;;;;;;4405386;28;656172;-71
2021/05/07 12:29:16;;;;;;;2.60;1.40;;;15.30;99.90;;;;;;4431829;28;656048;-70
2021/05/07 12:32:03;;;;;;;3.17;1.20;;;15.20;99.90;;;;;;4405943;28;655849;-72
2021/05/07 12:34:59;;;;;;;1.77;1.10;;;15.20;99.90;;;;;;4434184;28;656468;-72
2021/05/07 12:37:46;;;;;;;2.30;1.57;;;15.70;99.90;;;;;;4407159;28;655517;-71
2021/05/07 12:40:33;;;;;;;1.80;1.27;;;15.90;99.90;;;;;;4406630;28;655452;-71
2021/05/07 12:43:20;;;;;;;2.57;1.60;;;15.80;99.90;;;;;;4431960;28;656142;-71
2021/05/07 12:46:07;;;;;;;2.10;1.40;;;15.30;99.90;;;;;;4412723;28;655833;-70
2021/05/07 12:48:55;;;;;;;2.50;1.63;;;15.10;99.90;;;;;;4431509;28;656716;-73
2021/05/07 12:51:43;;;;;;;2.50;1.30;;;14.90;99.90;;;;;;4417562;28;655440;-72
2021/05/07 12:54:30;;;;;;;2.43;1.50;;;14.50;99.90;;;;;;4431067;28;657008;-73
2021/05/07 12:57:17;;;;;;;4.20;1.60;;;14.20;99.90;;;;;;4405642;28;656169;-72
2021/05/07 13:00:06;;;;;;;2.75;1.50;;;14.10;99.90;;;;;;4435193;28;656647;-72
2021/05/07 13:02:52;;;;;;;3.10;1.80;;;14.10;99.90;;;;;;4411080;28;655869;-73
2021/05/07 13:05:39;;;;;;;3.10;1.97;;;14.20;99.90;;;;;;4422187;28;656790;-72
2021/05/07 13:08:27;;;;;;;3.00;1.90;;;14.10;99.90;;;;;;4435525;28;654489;-72
2021/05/07 13:11:14;;;;;;;3.87;2.10;;;14.20;99.90;;;;;;4405882;28;655765;-72
2021/05/07 13:14:01;;;;;;;4.57;2.40;;;14.20;99.90;;;;;;4431564;28;655595;-71
2021/05/07 13:16:48;;;;;;;4.93;2.80;;;14.20;99.90;;;;;;4411115;28;655409;-71
2021/05/07 13:19:35;;;;;;;4.63;3.53;;;13.70;99.90;;;;;;4435309;28;655831;-72
2021/05/07 13:22:22;;;;;;;4.77;3.33;;;13.10;99.90;;;;;;4402766;28;655468;-70
2021/05/07 13:25:11;;;;;;;4.47;3.07;;;12.70;99.90;;;;;;4432498;28;655496;-72
2021/05/07 13:27:58;;;;;;;4.87;2.87;;;12.20;99.90;;;;;;4406604;28;655753;-71
2021/05/07 13:30:45;;;;;;;4.87;2.60;;;11.70;99.90;;;;;;4434178;28;656031;-72
2021/05/07 13:33:33;;;;;;;3.70;2.40;;;11.50;99.90;;;;;;4417795;28;655558;-70
2021/05/07 13:36:22;;;;;;;3.57;2.40;;;11.50;99.90;;;;;;4425950;28;656087;-72
2021/05/07 13:39:09;;;;;;;4.30;2.53;;;11.30;99.90;;;;;;4408763;28;655890;-72
2021/05/07 13:41:57;;;;;;;4.27;2.77;;;11.10;99.90;;;;;;4426712;28;655398;-72
2021/05/07 13:44:44;;;;;;;3.57;2.67;;;10.90;99.90;;;;;;4406672;28;656979;-71
2021/05/07 13:47:31;;;;;;;4.87;2.97;;;10.70;99.90;;;;;;4429867;28;655796;-71
2021/05/07 13:50:19;;;;;;;4.00;2.70;;;10.60;99.90;;;;;;4407331;28;655155;-72
2021/05/07 13:53:06;;;;;;;6.40;2.50;;;10.50;99.90;;;;;;4430234;28;656108;-72
2021/05/07 13:55:53;;;;;;;3.77;2.60;;;10.50;99.90;;;;;;4404437;28;655388;-73
2021/05/07 13:58:41;;;;;;;4.50;2.30;;;10.70;99.90;;;;;;4430219;28;656812;-71
2021/05/07 14:01:28;;;;;;;4.67;2.70;;;11.20;99.90;;;;;;4397308;28;655611;-71
2021/05/07 14:04:15;;;;;;;5.20;2.60;;;11.40;99.90;;;;;;4428802;28;656569;-71
2021/05/07 14:07:02;;;;;;;5.90;2.87;;;11.60;99.90;;;;;;4421696;28;655645;-70
2021/05/07 14:09:49;;;;;;;5.20;2.60;;;11.70;99.90;;;;;;4424119;28;656926;-72
2021/05/07 14:12:36;;;;;;;5.53;2.67;;;11.60;99.90;;;;;;4422758;28;655931;-72
2021/05/07 14:15:25;;;;;;;6.70;3.37;;;11.70;99.90;;;;;;4412360;28;655644;-71
2021/05/07 14:18:11;;;;;;;5.13;3.10;;;11.60;99.90;;;;;;4434928;28;655429;-72
2021/05/07 14:20:59;;;;;;;5.90;3.23;;;11.70;99.90;;;;;;4407362;28;655754;-71
2021/05/07 14:23:47;;;;;;;9.47;3.40;;;11.80;99.90;;;;;;4424166;28;655828;-71
2021/05/07 14:26:34;;;;;;;8.63;3.37;;;11.80;99.90;;;;;;4404458;28;655938;-71
2021/05/07 14:29:21;;;;;;;7.87;3.90;;;11.80;99.90;;;;;;4436439;28;655122;-71